Time;durP1;ratioP1;P1;durP2;ratioP2;P2;SDS_P1;SDS_P2;PMS_P1;PMS_P2;Temp;Humidity;BMP_temperature;BMP_pressure;BME280_temperature;BME280_humidity;BME280_pressure;Samples;Min_cycle;Max_cycle;Signal;HPM_P1;HPM_P2
2023/09/15 00:01:16;;;;;;;17.38;12.07;;;;;;;-140.66;100.00;55571.53;5078506;28;20082;-70
2023/09/15 00:04:05;;;;;;;18.83;12.35;;;;;;;-140.66;100.00;55571.53;5078264;28;20455;-71
2023/09/15 00:06:51;;;;;;;21.55;12.77;;;;;;;-140.66;100.00;55571.53;5077849;28;20040;-71
2023/09/15 00:09:37;;;;;;;21.27;11.88;;;;;;;-140.66;100.00;55571.53;5078515;28;20169;-71
2023/09/15 00:12:23;;;;;;;25.00;12.60;;;;;;;-140.66;100.00;55571.53;5076265;28;20105;-71
2023/09/15 00:15:10;;;;;;;17.83;12.18;;;;;;;-140.66;100.00;55571.53;5077516;28;20020;-70
2023/09/15 00:17:56;;;;;;;19.25;12.23;;;;;;;-140.66;100.00;55571.53;5078106;28;20040;-70
2023/09/15 00:20:42;;;;;;;21.20;11.93;;;;;;;-140.66;100.00;55571.53;5077674;28;20051;-70
2023/09/15 00:23:28;;;;;;;26.58;12.18;;;;;;;-140.66;100.00;55571.53;5077554;28;20025;-70
2023/09/15 00:26:13;;;;;;;15.32;11.23;;;;;;;-140.66;100.00;55571.53;5077399;28;20028;-70
2023/09/15 00:29:00;;;;;;;16.45;11.82;;;;;;;-140.66;100.00;55571.53;5077376;28;20055;-71
2023/09/15 00:31:46;;;;;;;18.05;12.48;;;;;;;-140.66;100.00;55571.53;5077299;28;20058;-71
2023/09/15 00:34:31;;;;;;;18.20;10.80;;;;;;;-140.66;100.00;55571.53;5077041;28;20071;-71
2023/09/15 00:37:17;;;;;;;16.48;11.23;;;;;;;-140.66;100.00;55571.53;5077142;28;20056;-71
2023/09/15 00:40:06;;;;;;;17.38;11.32;;;;;;;-140.66;100.00;55571.53;5076838;28;20154;-71
2023/09/15 00:42:53;;;;;;;15.82;11.68;;;;;;;-140.66;100.00;55571.53;5077378;28;20327;-70
2023/09/15 00:45:39;;;;;;;17.88;11.55;;;;;;;-140.66;100.00;55571.53;5063170;28;20025;-70
2023/09/15 00:48:26;;;;;;;17.27;11.15;;;;;;;-140.66;100.00;55571.53;5063509;28;20033;-71
2023/09/15 00:51:12;;;;;;;20.55;12.25;;;;;;;-140.66;100.00;55571.53;5077341;28;20504;-71
2023/09/15 00:53:58;;;;;;;24.45;12.50;;;;;;;-140.66;100.00;55571.53;5077165;28;20032;-71
2023/09/15 00:56:44;;;;;;;18.90;12.52;;;;;;;-140.66;100.00;55571.53;5077343;28;20033;-71
2023/09/15 00:59:31;;;;;;;17.35;12.82;;;;;;;-140.66;100.00;55571.53;5062742;28;20457;-71
2023/09/15 01:02:18;;;;;;;17.50;12.75;;;;;;;-140.66;100.00;55571.53;5076721;28;20032;-70
2023/09/15 01:05:04;;;;;;;16.83;12.65;;;;;;;-140.66;100.00;55571.53;5076396;28;20133;-70
2023/09/15 01:07:53;;;;;;;19.33;12.20;;;;;;;-140.66;100.00;55571.53;5062901;28;20025;-70
2023/09/15 01:10:39;;;;;;;19.98;12.27;;;;;;;-140.66;100.00;55571.53;5076476;28;20375;-71
2023/09/15 01:13:25;;;;;;;17.75;12.48;;;;;;;-140.66;100.00;55571.53;5076797;28;20029;-71
2023/09/15 01:16:47;;;;;;;14.70;12.43;;;;;;;-140.66;100.00;55571.53;5076496;28;20385;-71
2023/09/15 01:19:56;;;;;;;16.58;12.32;;;;;;;-140.66;100.00;55571.53;5062803;28;20039;-71
2023/09/15 01:22:51;;;;;;;18.15;12.13;;;;;;;-140.66;100.00;55571.53;5075872;28;20021;-70
2023/09/15 01:25:52;;;;;;;17.98;12.18;;;;;;;-140.66;100.00;55571.53;5076121;28;20039;-69
2023/09/15 01:29:03;;;;;;;22.30;12.77;;;;;;;-140.66;100.00;55571.53;5076196;28;20093;-70
2023/09/15 01:31:49;;;;;;;18.60;11.55;;;;;;;-140.66;100.00;55571.53;5076329;28;20029;-70
2023/09/15 01:34:36;;;;;;;15.05;12.15;;;;;;;-140.66;100.00;55571.53;5076092;28;20052;-71
2023/09/15 01:37:23;;;;;;;21.08;11.68;;;;;;;-140.66;100.00;55571.53;5076159;28;20024;-69
2023/09/15 01:40:10;;;;;;;18.35;11.98;;;;;;;-140.66;100.00;55571.53;5077396;28;20458;-69
2023/09/15 01:42:55;;;;;;;17.98;12.68;;;;;;;-140.66;100.00;55571.53;5077107;28;20028;-70
2023/09/15 01:45:41;;;;;;;17.83;12.90;;;;;;;-140.66;100.00;55571.53;5074715;28;20024;-70
2023/09/15 01:48:28;;;;;;;17.80;12.05;;;;;;;-140.66;100.00;55571.53;5077049;28;20378;-70
2023/09/15 01:51:13;;;;;;;18.42;12.25;;;;;;;-140.66;100.00;55571.53;5075642;28;20024;-71
2023/09/15 01:53:59;;;;;;;18.83;12.43;;;;;;;-140.66;100.00;55571.53;5075460;28;20024;-70
2023/09/15 01:56:45;;;;;;;20.02;13.50;;;;;;;-140.66;100.00;55571.53;5076253;28;20028;-70
2023/09/15 01:59:32;;;;;;;17.80;12.20;;;;;;;-140.66;100.00;55571.53;5076320;28;20435;-70
2023/09/15 02:02:18;;;;;;;16.58;12.35;;;;;;;-140.66;100.00;55571.53;5075483;28;20071;-71
2023/09/15 02:05:04;;;;;;;18.63;12.52;;;;;;;-140.66;100.00;55571.53;5060944;28;20045;-70
2023/09/15 02:07:50;;;;;;;18.50;12.18;;;;;;;-140.66;100.00;55571.53;5075329;28;20024;-70
2023/09/15 02:10:36;;;;;;;17.85;12.05;;;;;;;-140.66;100.00;55571.53;5075713;28;20036;-70
2023/09/15 02:13:22;;;;;;;19.58;12.45;;;;;;;-140.66;100.00;55571.53;5074832;28;20028;-70
2023/09/15 02:16:08;;;;;;;13.45;12.05;;;;;;;-140.66;100.00;55571.53;5075037;28;20028;-70
2023/09/15 02:18:53;;;;;;;15.32;11.90;;;;;;;-140.66;100.00;55571.53;5075105;28;20090;-70
2023/09/15 02:21:39;;;;;;;13.05;11.48;;;;;;;-140.66;100.00;55571.53;5074967;28;20028;-70
2023/09/15 02:24:26;;;;;;;16.80;12.07;;;;;;;-140.66;100.00;55571.53;5074698;28;20052;-72
2023/09/15 02:27:11;;;;;;;18.65;11.57;;;;;;;-140.66;100.00;55571.53;5073920;28;20111;-70
2023/09/15 02:29:57;;;;;;;19.80;12.38;;;;;;;-140.66;100.00;55571.53;5075437;28;20094;-70
2023/09/15 02:32:44;;;;;;;19.20;11.27;;;;;;;-140.66;100.00;55571.53;5075045;28;20029;-71
2023/09/15 02:35:30;;;;;;;17.20;11.32;;;;;;;-140.66;100.00;55571.53;5074492;28;20024;-71
2023/09/15 02:38:16;;;;;;;15.63;11.35;;;;;;;-140.66;100.00;55571.53;5074127;28;20060;-69
2023/09/15 02:41:02;;;;;;;19.10;11.02;;;;;;;-140.66;100.00;55571.53;5075731;28;20017;-71
2023/09/15 02:43:47;;;;;;;15.02;11.00;;;;;;;-140.66;100.00;55571.53;5077243;28;20039;-69
2023/09/15 02:46:33;;;;;;;15.68;10.88;;;;;;;-140.66;100.00;55571.53;5075472;28;20126;-70
2023/09/15 02:49:19;;;;;;;14.27;10.73;;;;;;;-140.66;100.00;55571.53;5074574;28;20040;-71
2023/09/15 02:52:05;;;;;;;13.70;10.20;;;;;;;-140.66;100.00;55571.53;5076766;28;20040;-70
2023/09/15 02:54:51;;;;;;;17.15;11.88;;;;;;;-140.66;100.00;55571.53;5076335;28;20103;-70
2023/09/15 02:57:36;;;;;;;16.00;11.07;;;;;;;-140.66;100.00;55571.53;5076309;28;20028;-71
2023/09/15 03:00:22;;;;;;;16.60;10.82;;;;;;;-140.66;100.00;55571.53;5076199;28;20374;-70
2023/09/15 03:03:08;;;;;;;14.18;10.82;;;;;;;-140.66;100.00;55571.53;5074688;28;20031;-71
2023/09/15 03:06:08;;;;;;;15.20;10.40;;;;;;;-140.66;100.00;55571.53;5075475;28;20461;-70
2023/09/15 03:08:53;;;;;;;13.30;10.68;;;;;;;-140.66;100.00;55571.53;5075854;28;20043;-71
2023/09/15 03:11:39;;;;;;;18.48;10.20;;;;;;;-140.66;100.00;55571.53;5076008;28;20104;-70
2023/09/15 03:14:25;;;;;;;15.38;10.90;;;;;;;-140.66;100.00;55571.53;5076208;28;20024;-70
2023/09/15 03:17:11;;;;;;;13.95;10.70;;;;;;;-140.66;100.00;55571.53;5075148;28;20024;-70
2023/09/15 03:19:56;;;;;;;13.60;10.43;;;;;;;-140.66;100.00;55571.53;5074791;28;20039;-71
2023/09/15 03:22:43;;;;;;;13.40;10.23;;;;;;;-140.66;100.00;55571.53;5074084;28;20103;-71
2023/09/15 03:25:29;;;;;;;13.35;10.10;;;;;;;-140.66;100.00;55571.53;5074986;28;20025;-70
2023/09/15 03:28:15;;;;;;;12.70;9.82;;;;;;;-140.66;100.00;55571.53;5059054;28;20064;-71
2023/09/15 03:31:03;;;;;;;18.33;10.75;;;;;;;-140.66;100.00;55571.53;5073792;28;20465;-72
2023/09/15 03:33:49;;;;;;;15.43;10.70;;;;;;;-140.66;100.00;55571.53;5074241;28;20498;-71
2023/09/15 03:36:34;;;;;;;13.50;10.68;;;;;;;-140.66;100.00;55571.53;5073833;28;20058;-71
2023/09/15 03:39:20;;;;;;;16.88;10.70;;;;;;;-140.66;100.00;55571.53;5073354;28;20028;-71
2023/09/15 03:42:06;;;;;;;13.88;10.70;;;;;;;-140.66;100.00;55571.53;5060066;28;20067;-70
2023/09/15 03:44:52;;;;;;;13.50;10.27;;;;;;;-140.66;100.00;55571.53;5074265;28;20025;-72
2023/09/15 03:47:38;;;;;;;15.15;10.50;;;;;;;-140.66;100.00;55571.53;5074541;28;20028;-71
2023/09/15 03:50:24;;;;;;;16.27;9.98;;;;;;;-140.66;100.00;55571.53;5074661;28;20056;-71
2023/09/15 03:53:10;;;;;;;16.20;10.40;;;;;;;-140.66;100.00;55571.53;5073864;28;20111;-70
2023/09/15 03:55:56;;;;;;;14.50;10.30;;;;;;;-140.66;100.00;55571.53;5074056;28;20385;-71
2023/09/15 03:58:41;;;;;;;16.15;9.93;;;;;;;-140.66;100.00;55571.53;5073939;28;20442;-71
2023/09/15 04:01:27;;;;;;;19.27;10.50;;;;;;;-140.66;100.00;55571.53;5072646;28;20024;-71
2023/09/15 04:04:13;;;;;;;12.40;10.38;;;;;;;-140.66;100.00;55571.53;5074340;28;20035;-72
2023/09/15 04:06:59;;;;;;;16.45;10.23;;;;;;;-140.66;100.00;55571.53;5059883;28;20056;-71
2023/09/15 04:09:45;;;;;;;13.93;10.65;;;;;;;-140.66;100.00;55571.53;5057757;28;20106;-70
2023/09/15 04:12:32;;;;;;;15.40;10.20;;;;;;;-140.66;100.00;55571.53;5059910;28;20043;-70
2023/09/15 04:15:18;;;;;;;13.65;10.30;;;;;;;-140.66;100.00;55571.53;5073491;28;20064;-71
2023/09/15 04:18:08;;;;;;;15.48;9.77;;;;;;;-140.66;100.00;55571.53;5076817;28;20029;-71
2023/09/15 04:20:53;;;;;;;13.18;10.27;;;;;;;-140.66;100.00;55571.53;5076609;28;20162;-70
2023/09/15 04:23:39;;;;;;;17.75;10.30;;;;;;;-140.66;100.00;55571.53;5077333;28;20028;-71
2023/09/15 04:26:25;;;;;;;17.40;9.40;;;;;;;-140.66;100.00;55571.53;5077456;28;20032;-71
2023/09/15 04:29:11;;;;;;;15.77;9.45;;;;;;;-140.66;100.00;55571.53;5077134;28;20093;-71
2023/09/15 04:31:56;;;;;;;11.85;9.52;;;;;;;-140.66;100.00;55571.53;5076620;28;20024;-70
2023/09/15 04:34:42;;;;;;;14.65;9.82;;;;;;;-140.66;100.00;55571.53;5076940;28;20040;-71
2023/09/15 04:37:29;;;;;;;12.32;9.95;;;;;;;-140.66;100.00;55571.53;5076644;28;20107;-71
2023/09/15 04:40:15;;;;;;;16.38;9.63;;;;;;;-140.66;100.00;55571.53;5077164;28;20097;-70
2023/09/15 04:43:01;;;;;;;17.73;9.75;;;;;;;-140.66;100.00;55571.53;5075833;28;20020;-71
2023/09/15 04:45:47;;;;;;;16.55;9.30;;;;;;;-140.66;100.00;55571.53;5076923;28;20534;-71
2023/09/15 04:48:33;;;;;;;15.07;9.40;;;;;;;-140.66;100.00;55571.53;5077494;28;20043;-70
2023/09/15 04:51:19;;;;;;;16.70;10.05;;;;;;;-140.66;100.00;55571.53;5075798;28;20028;-70
2023/09/15 04:54:04;;;;;;;14.30;10.25;;;;;;;-140.66;100.00;55571.53;5077106;28;20040;-70
2023/09/15 04:56:50;;;;;;;18.58;10.50;;;;;;;-140.66;100.00;55571.53;5076473;28;20025;-70
2023/09/15 04:59:36;;;;;;;15.32;10.32;;;;;;;-140.66;100.00;55571.53;5077723;28;20518;-71
2023/09/15 05:02:23;;;;;;;18.15;9.57;;;;;;;-140.66;100.00;55571.53;5067587;28;20129;-71
2023/09/15 05:05:09;;;;;;;17.42;10.30;;;;;;;-140.66;100.00;55571.53;5075992;28;20150;-71
2023/09/15 05:07:56;;;;;;;15.60;9.82;;;;;;;-140.66;100.00;55571.53;5076606;28;20032;-71
2023/09/15 05:10:42;;;;;;;15.85;10.60;;;;;;;-140.66;100.00;55571.53;5076252;28;20028;-71
2023/09/15 05:13:27;;;;;;;12.93;9.98;;;;;;;-140.66;100.00;55571.53;5076018;28;20043;-72
2023/09/15 05:16:14;;;;;;;19.45;10.68;;;;;;;-140.66;100.00;55571.53;5076052;28;20055;-71
2023/09/15 05:19:00;;;;;;;14.02;9.68;;;;;;;-140.66;100.00;55571.53;5061196;28;20028;-71
2023/09/15 05:21:46;;;;;;;18.58;9.57;;;;;;;-140.66;100.00;55571.53;5075835;28;20413;-71
2023/09/15 05:24:32;;;;;;;17.85;9.57;;;;;;;-140.66;100.00;55571.53;5075786;28;20040;-71
2023/09/15 05:27:17;;;;;;;18.33;9.68;;;;;;;-140.66;100.00;55571.53;5075911;28;20108;-72
2023/09/15 05:30:04;;;;;;;15.32;9.48;;;;;;;-140.66;100.00;55571.53;5061346;28;20047;-72
2023/09/15 05:32:50;;;;;;;23.42;9.80;;;;;;;-140.66;100.00;55571.53;5075503;28;20035;-71
2023/09/15 05:35:36;;;;;;;14.10;9.10;;;;;;;-140.66;100.00;55571.53;5075502;28;20461;-71
2023/09/15 05:38:25;;;;;;;13.95;9.77;;;;;;;-140.66;100.00;55571.53;5061839;28;20036;-71
2023/09/15 05:41:12;;;;;;;15.50;9.32;;;;;;;-140.66;100.00;55571.53;5075456;28;20031;-70
2023/09/15 05:43:57;;;;;;;13.50;8.75;;;;;;;-140.66;100.00;55571.53;5075624;28;20033;-71
2023/09/15 05:46:43;;;;;;;15.73;10.40;;;;;;;-140.66;100.00;55571.53;5076301;28;20028;-71
2023/09/15 05:49:29;;;;;;;20.00;9.43;;;;;;;-140.66;100.00;55571.53;5074446;28;20093;-70
2023/09/15 05:52:15;;;;;;;13.10;9.65;;;;;;;-140.66;100.00;55571.53;5075310;28;20032;-71
2023/09/15 05:55:00;;;;;;;16.38;8.93;;;;;;;-140.66;100.00;55571.53;5074863;28;20056;-72
2023/09/15 05:57:46;;;;;;;19.20;9.70;;;;;;;-140.66;100.00;55571.53;5075487;28;20111;-70
2023/09/15 06:00:32;;;;;;;20.52;9.75;;;;;;;-140.66;100.00;55571.53;5061455;28;20028;-71
2023/09/15 06:03:18;;;;;;;15.50;9.65;;;;;;;-140.66;100.00;55571.53;5061369;28;20031;-71
2023/09/15 06:06:03;;;;;;;15.45;8.82;;;;;;;-140.66;100.00;55571.53;5074695;28;20450;-70
2023/09/15 06:08:49;;;;;;;15.32;8.90;;;;;;;-140.66;100.00;55571.53;5074750;28;20063;-71
2023/09/15 06:11:35;;;;;;;16.55;8.73;;;;;;;-140.66;100.00;55571.53;5074803;28;20457;-71
2023/09/15 06:14:21;;;;;;;16.50;9.13;;;;;;;-140.66;100.00;55571.53;5074441;28;20121;-71
2023/09/15 06:17:07;;;;;;;19.73;9.00;;;;;;;-140.66;100.00;55571.53;5074547;28;20020;-71
2023/09/15 06:19:53;;;;;;;14.90;9.57;;;;;;;-140.66;100.00;55571.53;5061142;28;20038;-72
2023/09/15 06:22:38;;;;;;;15.98;8.90;;;;;;;-140.66;100.00;55571.53;5074860;28;20025;-71
2023/09/15 06:25:24;;;;;;;12.98;8.85;;;;;;;-140.66;100.00;55571.53;5066765;28;20036;-71
2023/09/15 06:28:10;;;;;;;17.48;9.50;;;;;;;-140.66;100.00;55571.53;5074142;28;20024;-71
2023/09/15 06:30:56;;;;;;;14.98;9.23;;;;;;;-140.66;100.00;55571.53;5073956;28;20028;-72
2023/09/15 06:33:41;;;;;;;13.57;9.20;;;;;;;-140.66;100.00;55571.53;5074662;28;20020;-72
2023/09/15 06:36:27;;;;;;;15.70;9.07;;;;;;;-140.66;100.00;55571.53;5073785;28;20028;-71
2023/09/15 06:39:13;;;;;;;13.57;9.18;;;;;;;-140.66;100.00;55571.53;5074568;28;20047;-71
2023/09/15 06:41:58;;;;;;;15.20;9.45;;;;;;;-140.66;100.00;55571.53;5073647;28;20020;-70
2023/09/15 06:44:45;;;;;;;14.18;8.60;;;;;;;-140.66;100.00;55571.53;5074238;28;20028;-71
2023/09/15 06:47:30;;;;;;;14.02;9.18;;;;;;;-140.66;100.00;55571.53;5074799;28;20070;-71
2023/09/15 06:50:16;;;;;;;17.40;9.65;;;;;;;-140.66;100.00;55571.53;5074001;28;20051;-71
2023/09/15 06:53:02;;;;;;;13.40;9.60;;;;;;;-140.66;100.00;55571.53;5060448;28;20031;-71
2023/09/15 06:55:49;;;;;;;20.15;8.93;;;;;;;-140.66;100.00;55571.53;5073558;28;20064;-71
2023/09/15 06:58:34;;;;;;;17.00;9.20;;;;;;;-140.66;100.00;55571.53;5073846;28;20035;-70
2023/09/15 07:01:20;;;;;;;18.90;10.05;;;;;;;-140.66;100.00;55571.53;5073947;28;20462;-71
2023/09/15 07:04:06;;;;;;;22.52;10.73;;;;;;;-140.66;100.00;55571.53;5074057;28;20103;-71
2023/09/15 07:06:52;;;;;;;17.38;9.60;;;;;;;-140.66;100.00;55571.53;5074808;28;20068;-71
2023/09/15 07:09:38;;;;;;;15.20;9.25;;;;;;;-140.66;100.00;55571.53;5074077;28;20028;-70
2023/09/15 07:12:23;;;;;;;15.48;9.52;;;;;;;-140.66;100.00;55571.53;5073429;28;20020;-70
2023/09/15 07:15:09;;;;;;;11.15;8.07;;;;;;;-140.66;100.00;55571.53;5073848;28;20131;-71
2023/09/15 07:17:55;;;;;;;14.40;8.38;;;;;;;-140.66;100.00;55571.53;5073459;28;20040;-72
2023/09/15 07:20:41;;;;;;;18.15;10.02;;;;;;;-140.66;100.00;55571.53;5073573;28;20025;-70
2023/09/15 07:23:27;;;;;;;12.25;8.00;;;;;;;-140.66;100.00;55571.53;5074641;28;20020;-71
2023/09/15 07:26:14;;;;;;;12.27;7.90;;;;;;;-140.66;100.00;55571.53;5073991;28;20177;-71
2023/09/15 07:29:00;;;;;;;16.35;8.52;;;;;;;-140.66;100.00;55571.53;5059170;28;20086;-71
2023/09/15 07:31:46;;;;;;;11.27;8.60;;;;;;;-140.66;100.00;55571.53;5073446;28;20028;-71
2023/09/15 07:34:32;;;;;;;12.48;8.75;;;;;;;-140.66;100.00;55571.53;5058856;28;20025;-71
2023/09/15 07:37:18;;;;;;;10.60;8.60;;;;;;;-140.66;100.00;55571.53;5073820;28;20382;-72
2023/09/15 07:40:07;;;;;;;12.52;9.13;;;;;;;-140.66;100.00;55571.53;5073838;28;20035;-71
2023/09/15 07:42:53;;;;;;;11.85;8.45;;;;;;;-140.66;100.00;55571.53;5073086;28;20021;-71
2023/09/15 07:45:38;;;;;;;9.90;7.65;;;;;;;-140.66;100.00;55571.53;5073815;28;20028;-71
2023/09/15 07:48:24;;;;;;;13.88;7.88;;;;;;;-140.66;100.00;55571.53;5065915;28;20465;-71
2023/09/15 07:51:13;;;;;;;10.63;7.90;;;;;;;-140.66;100.00;55571.53;5073385;28;20032;-71
2023/09/15 07:54:00;;;;;;;14.27;7.63;;;;;;;-140.66;100.00;55571.53;5077128;28;20367;-71
2023/09/15 07:56:46;;;;;;;15.38;6.47;;;;;;;-140.66;100.00;55571.53;5078003;28;20025;-70
2023/09/15 07:59:32;;;;;;;9.70;6.72;;;;;;;-140.66;100.00;55571.53;5077283;28;20119;-70
2023/09/15 08:02:18;;;;;;;8.52;6.90;;;;;;;-140.66;100.00;55571.53;5076631;28;20086;-72
2023/09/15 08:05:04;;;;;;;8.15;7.20;;;;;;;-140.66;100.00;55571.53;5076064;28;20063;-72
2023/09/15 08:07:50;;;;;;;15.20;7.18;;;;;;;-140.66;100.00;55571.53;5077100;28;20440;-72
2023/09/15 08:10:36;;;;;;;12.80;7.28;;;;;;;-140.66;100.00;55571.53;5077287;28;20082;-71
2023/09/15 08:13:21;;;;;;;14.27;7.03;;;;;;;-140.66;100.00;55571.53;5069181;28;20024;-72
2023/09/15 08:16:07;;;;;;;14.48;7.53;;;;;;;-140.66;100.00;55571.53;5063349;28;20021;-71
2023/09/15 08:18:53;;;;;;;15.55;8.27;;;;;;;-140.66;100.00;55571.53;5076825;28;20169;-72
2023/09/15 08:21:39;;;;;;;11.55;8.10;;;;;;;-140.66;100.00;55571.53;5076847;28;20084;-72
2023/09/15 08:24:24;;;;;;;15.55;7.60;;;;;;;-140.66;100.00;55571.53;5076825;28;20036;-71
2023/09/15 08:27:10;;;;;;;10.40;7.68;;;;;;;-140.66;100.00;55571.53;5076571;28;20036;-72
2023/09/15 08:29:56;;;;;;;13.65;8.30;;;;;;;-140.66;100.00;55571.53;5062198;28;20108;-71
2023/09/15 08:32:43;;;;;;;11.00;7.18;;;;;;;-140.66;100.00;55571.53;5076840;28;20036;-72
2023/09/15 08:35:30;;;;;;;14.25;7.45;;;;;;;-140.66;100.00;55571.53;5076217;28;20021;-71
2023/09/15 08:38:15;;;;;;;14.02;7.50;;;;;;;-140.66;100.00;55571.53;5076553;28;20033;-72
2023/09/15 08:41:08;;;;;;;11.50;6.75;;;;;;;-140.66;100.00;55571.53;5076332;28;20020;-72
2023/09/15 08:43:54;;;;;;;10.50;7.65;;;;;;;-140.66;100.00;55571.53;5076046;28;20128;-70
2023/09/15 08:46:40;;;;;;;13.85;7.88;;;;;;;-140.66;100.00;55571.53;5076533;28;20035;-71
2023/09/15 08:49:27;;;;;;;12.27;6.85;;;;;;;-140.66;100.00;55571.53;5076278;28;20127;-71
2023/09/15 08:52:17;;;;;;;8.52;7.10;;;;;;;-140.66;100.00;55571.53;5076067;28;20340;-71
2023/09/15 08:55:03;;;;;;;16.52;7.00;;;;;;;-140.66;100.00;55571.53;5076084;28;20059;-71
2023/09/15 08:57:50;;;;;;;10.38;6.60;;;;;;;-140.66;100.00;55571.53;5076264;28;20028;-71
2023/09/15 09:00:37;;;;;;;12.65;6.82;;;;;;;-140.66;100.00;55571.53;5076210;28;20028;-71
2023/09/15 09:03:23;;;;;;;10.00;6.30;;;;;;;-140.66;100.00;55571.53;5068456;28;20052;-71
2023/09/15 09:06:11;;;;;;;9.98;6.65;;;;;;;-140.66;100.00;55571.53;5076343;28;20063;-74
2023/09/15 09:08:57;;;;;;;8.73;6.20;;;;;;;-140.66;100.00;55571.53;5061898;28;20028;-74
2023/09/15 09:11:43;;;;;;;11.77;8.45;;;;;;;-140.66;100.00;55571.53;5062838;28;20031;-74
2023/09/15 09:14:28;;;;;;;12.82;7.00;;;;;;;-140.66;100.00;55571.53;5075653;28;20047;-73
2023/09/15 09:17:18;;;;;;;9.57;6.60;;;;;;;-140.66;100.00;55571.53;5075638;28;20323;-73
2023/09/15 09:20:05;;;;;;;10.13;6.80;;;;;;;-140.66;100.00;55571.53;5075025;28;20055;-73
2023/09/15 09:22:52;;;;;;;12.70;7.00;;;;;;;-140.66;100.00;55571.53;5075749;28;20025;-73
2023/09/15 09:25:39;;;;;;;11.25;6.05;;;;;;;-140.66;100.00;55571.53;5075750;28;20035;-73
2023/09/15 09:28:28;;;;;;;6.97;5.80;;;;;;;-140.66;100.00;55571.53;5074884;28;20371;-73
2023/09/15 09:31:15;;;;;;;11.60;6.30;;;;;;;-140.66;100.00;55571.53;5075592;28;20242;-73
2023/09/15 09:34:01;;;;;;;6.60;5.47;;;;;;;-140.66;100.00;55571.53;5075583;28;20024;-74
2023/09/15 09:36:49;;;;;;;9.60;6.40;;;;;;;-140.66;100.00;55571.53;5075499;28;20032;-73
2023/09/15 09:39:35;;;;;;;6.68;5.75;;;;;;;-140.66;100.00;55571.53;5075525;28;20105;-73
2023/09/15 09:42:24;;;;;;;10.50;6.25;;;;;;;-140.66;100.00;55571.53;5066580;28;20035;-73
2023/09/15 09:45:10;;;;;;;8.55;6.28;;;;;;;-140.66;100.00;55571.53;5074985;28;20469;-73
2023/09/15 09:47:58;;;;;;;7.80;6.10;;;;;;;-140.66;100.00;55571.53;5075958;28;20422;-73
2023/09/15 09:50:48;;;;;;;10.02;6.10;;;;;;;-140.66;100.00;55571.53;5074992;28;20043;-73
2023/09/15 09:53:35;;;;;;;11.38;6.88;;;;;;;-140.66;100.00;55571.53;5075380;28;20028;-72
2023/09/15 09:56:22;;;;;;;16.23;7.00;;;;;;;-140.66;100.00;55571.53;5076256;28;20108;-73
2023/09/15 09:59:12;;;;;;;7.60;5.93;;;;;;;-140.66;100.00;55571.53;5075068;28;20056;-73
2023/09/15 10:01:58;;;;;;;11.80;6.63;;;;;;;-140.66;100.00;55571.53;5059949;28;20021;-73
2023/09/15 10:04:45;;;;;;;15.13;7.30;;;;;;;-140.66;100.00;55571.53;5060165;28;20124;-72
2023/09/15 10:07:31;;;;;;;9.85;6.80;;;;;;;-140.66;100.00;55571.53;5074481;28;20043;-74
2023/09/15 10:10:17;;;;;;;12.55;6.82;;;;;;;-140.66;100.00;55571.53;5074929;28;20027;-74
2023/09/15 10:13:03;;;;;;;12.45;7.00;;;;;;;-140.66;100.00;55571.53;5074191;28;20025;-73
2023/09/15 10:15:50;;;;;;;12.90;6.75;;;;;;;-140.66;100.00;55571.53;5073756;28;20071;-73
2023/09/15 10:18:37;;;;;;;7.72;6.55;;;;;;;-140.66;100.00;55571.53;5073995;28;20454;-73
2023/09/15 10:21:24;;;;;;;14.43;6.88;;;;;;;-140.66;100.00;55571.53;5066964;28;20115;-72
2023/09/15 10:24:11;;;;;;;13.35;7.18;;;;;;;-140.66;100.00;55571.53;5074514;28;20028;-74
2023/09/15 10:26:57;;;;;;;12.30;6.55;;;;;;;-140.66;100.00;55571.53;5074549;28;20024;-74
2023/09/15 10:29:46;;;;;;;12.23;7.10;;;;;;;-140.66;100.00;55571.53;5074416;28;20020;-73
2023/09/15 10:32:39;;;;;;;12.65;6.93;;;;;;;-140.66;100.00;55571.53;5073889;28;20363;-72
2023/09/15 10:35:26;;;;;;;14.13;7.20;;;;;;;-140.66;100.00;55571.53;5074267;28;20024;-73
2023/09/15 10:38:12;;;;;;;9.45;6.80;;;;;;;-140.66;100.00;55571.53;5060104;28;20020;-73
2023/09/15 10:41:01;;;;;;;10.70;6.85;;;;;;;-140.66;100.00;55571.53;5074317;28;20025;-74
2023/09/15 10:43:49;;;;;;;9.70;6.60;;;;;;;-140.66;100.00;55571.53;5059536;28;20450;-75
2023/09/15 10:46:36;;;;;;;10.68;6.97;;;;;;;-140.66;100.00;55571.53;5074068;28;20028;-73
2023/09/15 10:49:22;;;;;;;11.25;6.80;;;;;;;-140.66;100.00;55571.53;5073735;28;20039;-74
2023/09/15 10:52:08;;;;;;;12.25;6.55;;;;;;;-140.66;100.00;55571.53;5073231;28;20036;-73
2023/09/15 10:54:54;;;;;;;12.60;6.90;;;;;;;-140.66;100.00;55571.53;5059008;28;20092;-73
2023/09/15 10:57:40;;;;;;;9.25;6.57;;;;;;;-140.66;100.00;55571.53;5073789;28;20028;-73
2023/09/15 11:00:26;;;;;;;7.30;6.00;;;;;;;-140.66;100.00;55571.53;5074212;28;20024;-73
2023/09/15 11:03:13;;;;;;;7.57;6.63;;;;;;;-140.66;100.00;55571.53;5073262;28;20043;-73
2023/09/15 11:06:01;;;;;;;8.82;6.47;;;;;;;-140.66;100.00;55571.53;5073627;28;20512;-73
2023/09/15 11:08:48;;;;;;;13.23;7.47;;;;;;;-140.66;100.00;55571.53;5073802;28;20462;-74
2023/09/15 11:11:33;;;;;;;8.63;7.57;;;;;;;-140.66;100.00;55571.53;5073717;28;20135;-74
2023/09/15 11:14:21;;;;;;;12.50;7.40;;;;;;;-140.66;100.00;55571.53;5073250;28;20032;-74
2023/09/15 11:17:08;;;;;;;9.85;6.80;;;;;;;-140.66;100.00;55571.53;5059982;28;20058;-73
2023/09/15 11:19:53;;;;;;;9.50;6.47;;;;;;;-140.66;100.00;55571.53;5073670;28;20035;-73
2023/09/15 11:22:39;;;;;;;13.57;7.10;;;;;;;-140.66;100.00;55571.53;5074068;28;20081;-74
2023/09/15 11:25:25;;;;;;;12.60;6.93;;;;;;;-140.66;100.00;55571.53;5059730;28;20039;-73
2023/09/15 11:28:13;;;;;;;10.00;6.80;;;;;;;-140.66;100.00;55571.53;5073574;28;20370;-74
2023/09/15 11:31:00;;;;;;;11.13;7.63;;;;;;;-140.66;100.00;55571.53;5074199;28;20020;-74
2023/09/15 11:33:46;;;;;;;13.75;7.10;;;;;;;-140.66;100.00;55571.53;5073456;28;20036;-73
2023/09/15 11:36:35;;;;;;;13.80;7.60;;;;;;;-140.66;100.00;55571.53;5072747;28;20078;-73
2023/09/15 11:39:22;;;;;;;14.18;7.20;;;;;;;-140.66;100.00;55571.53;5073151;28;20362;-74
2023/09/15 11:42:11;;;;;;;9.63;6.68;;;;;;;-140.66;100.00;55571.53;5059159;28;20029;-74
2023/09/15 11:44:57;;;;;;;11.18;7.18;;;;;;;-140.66;100.00;55571.53;5074295;28;20024;-73
2023/09/15 11:47:46;;;;;;;9.40;6.70;;;;;;;-140.66;100.00;55571.53;5073909;28;20442;-73
2023/09/15 11:50:32;;;;;;;10.70;7.60;;;;;;;-140.66;100.00;55571.53;5073510;28;20389;-74
2023/09/15 11:53:29;;;;;;;10.02;6.88;;;;;;;-140.66;100.00;55571.53;5073172;28;20020;-73
2023/09/15 11:56:19;;;;;;;12.00;7.25;;;;;;;-140.66;100.00;55571.53;5072831;28;20115;-74
2023/09/15 11:59:06;;;;;;;10.25;7.10;;;;;;;-140.66;100.00;55571.53;5059475;28;20086;-73
2023/09/15 12:01:54;;;;;;;9.20;7.57;;;;;;;-140.66;100.00;55571.53;5059314;28;20374;-73
2023/09/15 12:04:40;;;;;;;10.10;7.63;;;;;;;-140.66;100.00;55571.53;5072811;28;20043;-74
2023/09/15 12:07:27;;;;;;;10.48;7.80;;;;;;;-140.66;100.00;55571.53;5073420;28;20115;-74
2023/09/15 12:10:26;;;;;;;15.65;7.50;;;;;;;-140.66;100.00;55571.53;5073926;28;20039;-72
2023/09/15 12:13:12;;;;;;;12.90;7.75;;;;;;;-140.66;100.00;55571.53;5073826;28;20044;-74
2023/09/15 12:15:58;;;;;;;13.32;8.18;;;;;;;-140.66;100.00;55571.53;5072712;28;20032;-74
2023/09/15 12:18:46;;;;;;;13.73;9.10;;;;;;;-140.66;100.00;55571.53;5072795;28;20032;-73
2023/09/15 12:21:31;;;;;;;15.38;9.48;;;;;;;-140.66;100.00;55571.53;5058403;28;20048;-74
2023/09/15 12:24:19;;;;;;;11.52;9.05;;;;;;;-140.66;100.00;55571.53;5072817;28;20094;-74
2023/09/15 12:27:05;;;;;;;13.63;9.38;;;;;;;-140.66;100.00;55571.53;5058355;28;20024;-74